Portada
METAR-TAF:

METAR-TAF

Aeroports :

Armilla

Granada, Espanya

latitud: 37-08N, longitud: 003-38-08W, altitud: 700 m

Observació

L'informe es va fer fa 1 hora i 1 minuts, a les 10:00 UTC
Vent 4 kt del Nord, variant entre Oest/Nord-Oest i Nord-Est
Temperatura 13°C
Humitat 58%
Pressió 1028 hPa
Visibilitat 10 km o més
sense núvols per sota de 1500 mi sense presència de cumulonimbus.

METAR: LEGA 211000Z 35004KT 300V040 CAVOK 13/05 Q1028

Hora: 12:01 (11:01 UTC)

Pronòstic

L'informe es va fer fa 3 hores i 1 minuts, a les 08:00 UTC
Pronòstic vàlid del 21 a les 09 UTC al 21 a les 18 UTC
Vent 2 kt amb direcció variable
Visibilitat 10 km o més
sense núvols per sota de 1500 mi sense presència de cumulonimbus.
Evolucionant progressivament
l' 21 a les 11 UTC al 21 a les 13 UTC
Vent 10 kt del Sud

TAF: LEGA 210800Z 2109/2118 VRB02KT CAVOK BECMG 2111/2113 18010KT

Observacions i pronòstics meteorològics de més de 4000 aeroports (METAR i TAF).

Les estacions disponibles són els punts grocs i vermells al mapa.

Posi el ratolí al punt desitjat per veure el nom de l'estació.

Feu clic per veure les observacions i els pronòstics meteorològics.

Per canviar el mapa: feu clic els botons verds amb una creu de color negre per apropar; al botó verd amb un guió per allunyar la imatge; o en les fletxes verdes per a mapes adjacents.


METAR-TAF: